Quentin, PA (17083)

5:07 PM EDT on April 19, 2015 (GMT -0400)
Cornwall W3LWH | | Change Station
CLOSE
Current Station
Personal Weather Station
Location: Cornwall, PA
Elevation: 540 ft
Nearby Weather Stations

Elev 540 ft 40.29 °N, 76.42 °W | Updated 14 minutes ago

Partly Cloudy
Partly Cloudy
63.1 °F
Feels Like 63.1 °F
N
6.0
Wind Variable Wind from East
Gusts 14.0 mph

Today
High -- | Low -- °F
--% Chance of Precip.
Yesterday
High -- | Low -- °F
Precip. -- in
6:22 AM 7:48 PM
New Moon, 2% visible
Pressure 30.09 in
Visibility 10.0 miles
Clouds Few 19000 ft
Dew Point 41 °F
Humidity 44%
Rainfall 0.00 in
Snow Depth Not available.
UV 3 out of 12
Pollen 9.80 out of 12
Air Quality Not available.
Flu Activity Sporadic
METAR KMUI 192058Z AUTO 16011KT 10SM FEW190 18/04 A3008 RMK AO2 SLP189 T01760039 55013

More Conditions Fewer Conditions

Pressure 30.09 in
Visibility 10.0 miles
Clouds Few 19000 ft
Dew Point 41 °F
Humidity 44%
Rainfall 0.00 in
Snow Depth Not available.
UV 3 out of 12
Pollen 9.80 out of 12
Air Quality Not available.
Flu Activity Sporadic
METAR KMUI 192058Z AUTO 16011KT 10SM FEW190 18/04 A3008 RMK AO2 SLP189 T01760039 55013

More Conditions Fewer Conditions

10-Day Weather Forecast

Almanac

Astronomy

Apr. 19, 2015 Rise Set
Actual Time
Civil Twilight
Nautical Twilight
Astronomical Twilight
Moon
Length of Visible Light
Length of Day
Tomorrow will be .
, % of the Moon is Illuminated

Today's Extremes

State Highs State Lows

Community

WunderPhotos

Upload Photos

1,814,980 photos uploaded!

WunderBlogs® & News

Nearby

Air Quality

  Air Quality AQ Index Pollutant
Not available.

Snow Depth

Station Depth Elevation

Earthquake Activity

City Distance Mag. Time & Date
Minimum magnitude displayed is 2.5.

Coastal Water Temperatures

Place Temperature

Stations

Nearby Weather Stations

Station Location Temp. Windchill Dew Point Humidity Wind Precip. Elev Updated Type